sensor_id;sensor_type;location;lat;lon;timestamp;temperature;humidity
55026;DHT22;40925;45.666;18.994;2023-12-14T00:01:14;205.60;2252.80
55026;DHT22;40925;45.666;18.994;2023-12-14T00:03:40;205.60;2252.80
55026;DHT22;40925;45.666;18.994;2023-12-14T00:06:10;205.70;2252.80
55026;DHT22;40925;45.666;18.994;2023-12-14T00:08:36;205.70;2252.80
55026;DHT22;40925;45.666;18.994;2023-12-14T00:11:10;205.70;2252.80
55026;DHT22;40925;45.666;18.994;2023-12-14T00:13:36;205.70;2252.80
55026;DHT22;40925;45.666;18.994;2023-12-14T00:16:03;205.60;2252.80
55026;DHT22;40925;45.666;18.994;2023-12-14T00:18:29;205.60;2252.80
55026;DHT22;40925;45.666;18.994;2023-12-14T00:20:55;205.60;2252.80
55026;DHT22;40925;45.666;18.994;2023-12-14T00:23:21;205.60;2252.80
55026;DHT22;40925;45.666;18.994;2023-12-14T00:25:47;205.60;2252.80
55026;DHT22;40925;45.666;18.994;2023-12-14T00:28:13;205.60;2252.80
55026;DHT22;40925;45.666;18.994;2023-12-14T00:30:39;205.60;2252.80
55026;DHT22;40925;45.666;18.994;2023-12-14T00:33:05;205.60;2252.80
55026;DHT22;40925;45.666;18.994;2023-12-14T00:35:30;205.60;2252.80
55026;DHT22;40925;45.666;18.994;2023-12-14T00:37:56;205.50;2252.80
55026;DHT22;40925;45.666;18.994;2023-12-14T00:40:22;205.50;2252.80
55026;DHT22;40925;45.666;18.994;2023-12-14T00:42:47;205.50;2252.80
55026;DHT22;40925;45.666;18.994;2023-12-14T00:45:13;205.40;2252.80
55026;DHT22;40925;45.666;18.994;2023-12-14T00:47:39;205.40;2252.80
55026;DHT22;40925;45.666;18.994;2023-12-14T00:50:05;205.40;2252.80
55026;DHT22;40925;45.666;18.994;2023-12-14T00:52:30;205.40;2252.80
55026;DHT22;40925;45.666;18.994;2023-12-14T00:54:56;205.30;2252.80
55026;DHT22;40925;45.666;18.994;2023-12-14T00:57:22;205.30;2252.80
55026;DHT22;40925;45.666;18.994;2023-12-14T00:59:48;205.30;2252.80
55026;DHT22;40925;45.666;18.994;2023-12-14T01:02:14;205.30;2252.80
55026;DHT22;40925;45.666;18.994;2023-12-14T01:04:39;205.20;2252.80
55026;DHT22;40925;45.666;18.994;2023-12-14T01:07:05;205.30;2252.80
55026;DHT22;40925;45.666;18.994;2023-12-14T01:09:31;205.40;2252.80
55026;DHT22;40925;45.666;18.994;2023-12-14T01:11:56;205.40;2252.80
55026;DHT22;40925;45.666;18.994;2023-12-14T01:14:22;205.50;2252.80
55026;DHT22;40925;45.666;18.994;2023-12-14T01:16:48;205.50;2252.80
55026;DHT22;40925;45.666;18.994;2023-12-14T01:19:13;205.50;2252.80
55026;DHT22;40925;45.666;18.994;2023-12-14T01:21:39;205.40;2252.80
55026;DHT22;40925;45.666;18.994;2023-12-14T01:24:05;205.40;2252.80
55026;DHT22;40925;45.666;18.994;2023-12-14T01:26:31;205.40;2252.80
55026;DHT22;40925;45.666;18.994;2023-12-14T01:28:57;205.40;2252.80
55026;DHT22;40925;45.666;18.994;2023-12-14T01:31:24;205.30;2252.80
55026;DHT22;40925;45.666;18.994;2023-12-14T01:33:50;205.30;2252.80
55026;DHT22;40925;45.666;18.994;2023-12-14T01:36:24;205.30;2252.80
55026;DHT22;40925;45.666;18.994;2023-12-14T01:38:50;205.30;2252.80
55026;DHT22;40925;45.666;18.994;2023-12-14T01:41:15;205.30;2252.80
55026;DHT22;40925;45.666;18.994;2023-12-14T01:43:41;205.30;2252.80
55026;DHT22;40925;45.666;18.994;2023-12-14T01:46:07;205.30;2252.80
55026;DHT22;40925;45.666;18.994;2023-12-14T01:48:33;205.30;2252.80
55026;DHT22;40925;45.666;18.994;2023-12-14T01:50:59;205.30;2252.80
55026;DHT22;40925;45.666;18.994;2023-12-14T01:53:25;205.30;2252.80
55026;DHT22;40925;45.666;18.994;2023-12-14T01:55:50;205.30;2252.80
55026;DHT22;40925;45.666;18.994;2023-12-14T01:58:16;205.20;2252.80
55026;DHT22;40925;45.666;18.994;2023-12-14T02:00:46;205.20;2252.80
55026;DHT22;40925;45.666;18.994;2023-12-14T02:03:15;205.30;2252.80
55026;DHT22;40925;45.666;18.994;2023-12-14T02:05:41;205.40;2252.80
55026;DHT22;40925;45.666;18.994;2023-12-14T02:08:07;205.20;2252.80
55026;DHT22;40925;45.666;18.994;2023-12-14T02:37:31;205.60;2252.80
55026;DHT22;40925;45.666;18.994;2023-12-14T02:39:58;205.40;2252.80
55026;DHT22;40925;45.666;18.994;2023-12-14T02:42:23;205.30;2252.80
55026;DHT22;40925;45.666;18.994;2023-12-14T02:44:49;205.60;2252.80
55026;DHT22;40925;45.666;18.994;2023-12-14T02:47:16;205.60;2252.80
55026;DHT22;40925;45.666;18.994;2023-12-14T02:49:42;205.40;2252.80
55026;DHT22;40925;45.666;18.994;2023-12-14T02:52:08;205.40;2252.80
55026;DHT22;40925;45.666;18.994;2023-12-14T02:54:34;205.40;2252.80
55026;DHT22;40925;45.666;18.994;2023-12-14T02:56:59;205.40;2252.80
55026;DHT22;40925;45.666;18.994;2023-12-14T02:59:25;205.40;2252.80
55026;DHT22;40925;45.666;18.994;2023-12-14T03:01:51;205.30;2252.80
55026;DHT22;40925;45.666;18.994;2023-12-14T03:04:16;205.30;2252.80
55026;DHT22;40925;45.666;18.994;2023-12-14T03:06:42;205.30;2252.80
55026;DHT22;40925;45.666;18.994;2023-12-14T03:09:08;205.30;2252.80
55026;DHT22;40925;45.666;18.994;2023-12-14T03:11:33;205.30;2252.80
55026;DHT22;40925;45.666;18.994;2023-12-14T03:13:59;205.30;2252.80
55026;DHT22;40925;45.666;18.994;2023-12-14T03:16:25;205.30;2252.80
55026;DHT22;40925;45.666;18.994;2023-12-14T03:18:50;205.30;2252.80
55026;DHT22;40925;45.666;18.994;2023-12-14T03:21:19;205.30;2252.80
55026;DHT22;40925;45.666;18.994;2023-12-14T03:23:45;205.50;2252.80
55026;DHT22;40925;45.666;18.994;2023-12-14T03:26:11;205.40;2252.80
55026;DHT22;40925;45.666;18.994;2023-12-14T03:28:37;205.50;2252.80
55026;DHT22;40925;45.666;18.994;2023-12-14T03:31:03;205.50;2252.80
55026;DHT22;40925;45.666;18.994;2023-12-14T03:33:28;205.30;2252.80
55026;DHT22;40925;45.666;18.994;2023-12-14T03:35:55;205.40;2252.80
55026;DHT22;40925;45.666;18.994;2023-12-14T03:38:21;205.40;2252.80
55026;DHT22;40925;45.666;18.994;2023-12-14T03:40:46;205.40;2252.80
55026;DHT22;40925;45.666;18.994;2023-12-14T03:43:12;205.40;2252.80
55026;DHT22;40925;45.666;18.994;2023-12-14T03:45:38;205.30;2252.80
55026;DHT22;40925;45.666;18.994;2023-12-14T03:48:03;205.30;2252.80
55026;DHT22;40925;45.666;18.994;2023-12-14T03:50:29;205.30;2252.80
55026;DHT22;40925;45.666;18.994;2023-12-14T03:52:55;205.30;2252.80
55026;DHT22;40925;45.666;18.994;2023-12-14T03:55:21;205.30;2252.80
55026;DHT22;40925;45.666;18.994;2023-12-14T03:57:46;205.30;2252.80
55026;DHT22;40925;45.666;18.994;2023-12-14T04:00:13;205.50;2252.80
55026;DHT22;40925;45.666;18.994;2023-12-14T04:02:39;205.20;2252.80
55026;DHT22;40925;45.666;18.994;2023-12-14T04:05:06;205.20;2252.80
55026;DHT22;40925;45.666;18.994;2023-12-14T04:07:35;205.20;2252.80
55026;DHT22;40925;45.666;18.994;2023-12-14T04:10:01;205.20;2252.80
55026;DHT22;40925;45.666;18.994;2023-12-14T04:12:27;205.20;2252.80
55026;DHT22;40925;45.666;18.994;2023-12-14T04:14:52;205.40;2252.80
55026;DHT22;40925;45.666;18.994;2023-12-14T04:17:18;205.20;2252.80
55026;DHT22;40925;45.666;18.994;2023-12-14T04:19:44;205.30;2252.80
55026;DHT22;40925;45.666;18.994;2023-12-14T04:22:09;205.30;2252.80
55026;DHT22;40925;45.666;18.994;2023-12-14T04:24:35;205.30;2252.80
55026;DHT22;40925;45.666;18.994;2023-12-14T04:27:01;205.30;2252.80
55026;DHT22;40925;45.666;18.994;2023-12-14T04:29:26;205.30;2252.80
55026;DHT22;40925;45.666;18.994;2023-12-14T04:31:52;205.30;2252.80
55026;DHT22;40925;45.666;18.994;2023-12-14T04:34:19;205.30;2252.80
55026;DHT22;40925;45.666;18.994;2023-12-14T04:36:48;205.30;2252.80
55026;DHT22;40925;45.666;18.994;2023-12-14T04:39:14;205.30;2252.80
55026;DHT22;40925;45.666;18.994;2023-12-14T04:41:39;205.30;2252.80
55026;DHT22;40925;45.666;18.994;2023-12-14T04:44:05;205.30;2252.80
55026;DHT22;40925;45.666;18.994;2023-12-14T04:46:31;205.40;2252.80
55026;DHT22;40925;45.666;18.994;2023-12-14T04:48:57;205.40;2252.80
55026;DHT22;40925;45.666;18.994;2023-12-14T04:51:22;205.50;2252.80
55026;DHT22;40925;45.666;18.994;2023-12-14T04:53:48;205.60;2252.80
55026;DHT22;40925;45.666;18.994;2023-12-14T04:56:14;205.50;2252.80
55026;DHT22;40925;45.666;18.994;2023-12-14T04:58:41;205.40;2252.80
55026;DHT22;40925;45.666;18.994;2023-12-14T05:01:07;205.30;2252.80
55026;DHT22;40925;45.666;18.994;2023-12-14T05:03:34;205.30;2252.80
55026;DHT22;40925;45.666;18.994;2023-12-14T05:06:00;205.30;2252.80
55026;DHT22;40925;45.666;18.994;2023-12-14T05:08:26;205.50;2252.80
55026;DHT22;40925;45.666;18.994;2023-12-14T05:10:51;205.30;2252.80
55026;DHT22;40925;45.666;18.994;2023-12-14T05:13:17;205.30;2252.80
55026;DHT22;40925;45.666;18.994;2023-12-14T05:15:43;205.30;2252.80
55026;DHT22;40925;45.666;18.994;2023-12-14T05:18:09;205.30;2252.80
55026;DHT22;40925;45.666;18.994;2023-12-14T05:20:35;205.30;2252.80
55026;DHT22;40925;45.666;18.994;2023-12-14T05:23:01;205.30;2252.80
55026;DHT22;40925;45.666;18.994;2023-12-14T05:25:27;205.30;2252.80
55026;DHT22;40925;45.666;18.994;2023-12-14T05:27:53;205.30;2252.80
55026;DHT22;40925;45.666;18.994;2023-12-14T05:30:18;205.20;2252.80
55026;DHT22;40925;45.666;18.994;2023-12-14T05:32:44;205.20;2252.80
55026;DHT22;40925;45.666;18.994;2023-12-14T05:35:10;205.20;2252.80
55026;DHT22;40925;45.666;18.994;2023-12-14T05:37:38;205.20;2252.80
55026;DHT22;40925;45.666;18.994;2023-12-14T05:40:04;205.20;2252.80
55026;DHT22;40925;45.666;18.994;2023-12-14T05:42:30;205.20;2252.80
55026;DHT22;40925;45.666;18.994;2023-12-14T05:44:56;205.20;2252.80
55026;DHT22;40925;45.666;18.994;2023-12-14T05:47:22;205.20;2252.80
55026;DHT22;40925;45.666;18.994;2023-12-14T05:49:47;205.20;2252.80
55026;DHT22;40925;45.666;18.994;2023-12-14T05:52:14;205.10;2252.80
55026;DHT22;40925;45.666;18.994;2023-12-14T05:54:39;205.10;2252.80
55026;DHT22;40925;45.666;18.994;2023-12-14T05:57:05;205.40;2252.80
55026;DHT22;40925;45.666;18.994;2023-12-14T05:59:31;205.20;2252.80
55026;DHT22;40925;45.666;18.994;2023-12-14T06:02:00;205.20;2252.80
55026;DHT22;40925;45.666;18.994;2023-12-14T06:04:27;205.20;2252.80
55026;DHT22;40925;45.666;18.994;2023-12-14T06:06:53;205.20;2252.80
55026;DHT22;40925;45.666;18.994;2023-12-14T06:09:19;205.10;2252.80
55026;DHT22;40925;45.666;18.994;2023-12-14T06:11:47;205.20;2252.80
55026;DHT22;40925;45.666;18.994;2023-12-14T06:14:13;205.20;2252.80
55026;DHT22;40925;45.666;18.994;2023-12-14T06:16:39;205.40;2252.80
55026;DHT22;40925;45.666;18.994;2023-12-14T06:19:04;205.20;2252.80
55026;DHT22;40925;45.666;18.994;2023-12-14T06:21:30;205.20;2252.80
55026;DHT22;40925;45.666;18.994;2023-12-14T06:23:56;205.20;2252.80
55026;DHT22;40925;45.666;18.994;2023-12-14T06:26:23;205.20;2252.80
55026;DHT22;40925;45.666;18.994;2023-12-14T06:28:48;205.40;2252.80
55026;DHT22;40925;45.666;18.994;2023-12-14T06:31:15;205.20;2252.80
55026;DHT22;40925;45.666;18.994;2023-12-14T06:33:41;205.20;2252.80
55026;DHT22;40925;45.666;18.994;2023-12-14T06:36:10;205.20;2252.80
55026;DHT22;40925;45.666;18.994;2023-12-14T06:38:39;205.40;2252.80
55026;DHT22;40925;45.666;18.994;2023-12-14T06:41:06;205.40;2252.80
55026;DHT22;40925;45.666;18.994;2023-12-14T06:43:32;205.30;2252.80
55026;DHT22;40925;45.666;18.994;2023-12-14T06:45:57;205.20;2252.80
55026;DHT22;40925;45.666;18.994;2023-12-14T06:48:23;205.40;2252.80
55026;DHT22;40925;45.666;18.994;2023-12-14T06:50:49;205.20;2252.80
55026;DHT22;40925;45.666;18.994;2023-12-14T06:53:14;205.20;2252.80
55026;DHT22;40925;45.666;18.994;2023-12-14T06:55:41;205.10;2252.80
55026;DHT22;40925;45.666;18.994;2023-12-14T06:58:07;205.10;2252.80
55026;DHT22;40925;45.666;18.994;2023-12-14T07:00:39;205.10;2252.80
55026;DHT22;40925;45.666;18.994;2023-12-14T07:03:05;205.20;2252.80
55026;DHT22;40925;45.666;18.994;2023-12-14T07:05:31;205.20;2252.80
55026;DHT22;40925;45.666;18.994;2023-12-14T07:07:58;205.40;2252.80
55026;DHT22;40925;45.666;18.994;2023-12-14T07:10:24;205.10;2252.80
55026;DHT22;40925;45.666;18.994;2023-12-14T07:12:50;205.40;2252.80
55026;DHT22;40925;45.666;18.994;2023-12-14T07:15:16;205.20;2252.80
55026;DHT22;40925;45.666;18.994;2023-12-14T07:17:41;205.70;2252.80
55026;DHT22;40925;45.666;18.994;2023-12-14T07:20:07;205.10;2252.80
55026;DHT22;40925;45.666;18.994;2023-12-14T07:22:33;205.10;2252.80
55026;DHT22;40925;45.666;18.994;2023-12-14T07:24:59;205.20;2252.80
55026;DHT22;40925;45.666;18.994;2023-12-14T07:27:25;205.20;2252.80
55026;DHT22;40925;45.666;18.994;2023-12-14T07:29:50;205.20;2252.80
55026;DHT22;40925;45.666;18.994;2023-12-14T07:32:16;205.20;2252.80
55026;DHT22;40925;45.666;18.994;2023-12-14T07:34:42;205.20;2252.80
55026;DHT22;40925;45.666;18.994;2023-12-14T07:37:07;205.10;2252.80
55026;DHT22;40925;45.666;18.994;2023-12-14T07:39:33;205.40;2252.80
55026;DHT22;40925;45.666;18.994;2023-12-14T07:41:59;205.20;2252.80
55026;DHT22;40925;45.666;18.994;2023-12-14T07:44:25;205.30;2252.80
55026;DHT22;40925;45.666;18.994;2023-12-14T07:46:51;205.20;2252.80
55026;DHT22;40925;45.666;18.994;2023-12-14T07:49:17;205.20;2252.80
55026;DHT22;40925;45.666;18.994;2023-12-14T07:51:47;205.20;2252.80
55026;DHT22;40925;45.666;18.994;2023-12-14T07:54:13;205.20;2252.80
55026;DHT22;40925;45.666;18.994;2023-12-14T07:56:39;205.20;2252.80
55026;DHT22;40925;45.666;18.994;2023-12-14T07:59:06;205.20;2252.80
55026;DHT22;40925;45.666;18.994;2023-12-14T08:01:33;205.20;2252.80
55026;DHT22;40925;45.666;18.994;2023-12-14T08:03:59;205.20;2252.80
55026;DHT22;40925;45.666;18.994;2023-12-14T08:06:25;205.20;2252.80
55026;DHT22;40925;45.666;18.994;2023-12-14T08:08:51;205.20;2252.80
55026;DHT22;40925;45.666;18.994;2023-12-14T08:11:17;205.20;2252.80
55026;DHT22;40925;45.666;18.994;2023-12-14T08:13:42;205.20;2252.80
55026;DHT22;40925;45.666;18.994;2023-12-14T08:16:08;205.30;2252.80
55026;DHT22;40925;45.666;18.994;2023-12-14T08:18:34;205.30;2252.80
55026;DHT22;40925;45.666;18.994;2023-12-14T08:21:00;205.30;2252.80
55026;DHT22;40925;45.666;18.994;2023-12-14T08:23:25;205.40;2252.80
55026;DHT22;40925;45.666;18.994;2023-12-14T08:25:56;205.40;2252.80
55026;DHT22;40925;45.666;18.994;2023-12-14T08:28:25;205.50;2252.80
55026;DHT22;40925;45.666;18.994;2023-12-14T08:30:51;205.50;2252.80
55026;DHT22;40925;45.666;18.994;2023-12-14T08:33:17;205.50;2252.80
55026;DHT22;40925;45.666;18.994;2023-12-14T08:35:43;205.50;2252.80
55026;DHT22;40925;45.666;18.994;2023-12-14T08:38:09;205.60;2252.80
55026;DHT22;40925;45.666;18.994;2023-12-14T08:40:35;205.60;2252.80
55026;DHT22;40925;45.666;18.994;2023-12-14T08:43:01;205.60;2252.80
55026;DHT22;40925;45.666;18.994;2023-12-14T08:45:28;205.60;2252.80
55026;DHT22;40925;45.666;18.994;2023-12-14T08:47:54;205.70;2252.80
55026;DHT22;40925;45.666;18.994;2023-12-14T08:50:19;205.60;2252.80
55026;DHT22;40925;45.666;18.994;2023-12-14T08:52:45;205.60;2252.80
55026;DHT22;40925;45.666;18.994;2023-12-14T08:55:11;205.70;2252.80
55026;DHT22;40925;45.666;18.994;2023-12-14T08:57:38;205.70;2252.80
55026;DHT22;40925;45.666;18.994;2023-12-14T09:00:04;230.40;2252.80
55026;DHT22;40925;45.666;18.994;2023-12-14T09:02:30;230.40;2252.80
55026;DHT22;40925;45.666;18.994;2023-12-14T09:04:55;230.50;2252.80
55026;DHT22;40925;45.666;18.994;2023-12-14T09:07:21;230.50;2252.80
55026;DHT22;40925;45.666;18.994;2023-12-14T09:09:47;230.50;2252.80
55026;DHT22;40925;45.666;18.994;2023-12-14T09:12:12;230.60;2252.80
55026;DHT22;40925;45.666;18.994;2023-12-14T09:14:38;230.40;2252.80
55026;DHT22;40925;45.666;18.994;2023-12-14T09:17:04;231.00;2252.80
55026;DHT22;40925;45.666;18.994;2023-12-14T09:19:30;231.20;2252.80
55026;DHT22;40925;45.666;18.994;2023-12-14T09:21:57;231.20;2252.80
55026;DHT22;40925;45.666;18.994;2023-12-14T09:24:23;256.00;2252.80
55026;DHT22;40925;45.666;18.994;2023-12-14T09:26:48;256.10;2252.80
55026;DHT22;40925;45.666;18.994;2023-12-14T09:29:14;256.10;2252.80
55026;DHT22;40925;45.666;18.994;2023-12-14T09:31:43;256.30;2252.80
55026;DHT22;40925;45.666;18.994;2023-12-14T09:34:10;256.60;2252.80
55026;DHT22;40925;45.666;18.994;2023-12-14T09:36:36;256.70;2252.80
55026;DHT22;40925;45.666;18.994;2023-12-14T09:39:02;281.60;2278.40
55026;DHT22;40925;45.666;18.994;2023-12-14T09:41:28;281.80;2278.40
55026;DHT22;40925;45.666;18.994;2023-12-14T09:43:54;281.80;2278.40
55026;DHT22;40925;45.666;18.994;2023-12-14T09:46:21;256.80;2252.80
55026;DHT22;40925;45.666;18.994;2023-12-14T09:48:51;256.60;2252.80
55026;DHT22;40925;45.666;18.994;2023-12-14T09:51:18;256.60;2252.80
55026;DHT22;40925;45.666;18.994;2023-12-14T09:53:45;256.60;2252.80
55026;DHT22;40925;45.666;18.994;2023-12-14T09:56:10;256.60;2252.80
55026;DHT22;40925;45.666;18.994;2023-12-14T09:58:36;256.70;2252.80
55026;DHT22;40925;45.666;18.994;2023-12-14T10:01:02;256.50;2252.80
55026;DHT22;40925;45.666;18.994;2023-12-14T10:03:30;256.50;2252.80
55026;DHT22;40925;45.666;18.994;2023-12-14T10:05:59;256.40;2252.80
55026;DHT22;40925;45.666;18.994;2023-12-14T10:08:27;256.50;2252.80
55026;DHT22;40925;45.666;18.994;2023-12-14T10:10:54;256.40;2252.80
55026;DHT22;40925;45.666;18.994;2023-12-14T10:13:35;256.40;2252.80
55026;DHT22;40925;45.666;18.994;2023-12-14T10:16:01;256.50;2252.80
55026;DHT22;40925;45.666;18.994;2023-12-14T10:18:27;256.60;2252.80
55026;DHT22;40925;45.666;18.994;2023-12-14T10:20:54;256.70;2252.80
55026;DHT22;40925;45.666;18.994;2023-12-14T10:23:20;256.70;2252.80
55026;DHT22;40925;45.666;18.994;2023-12-14T10:25:46;256.70;2252.80
55026;DHT22;40925;45.666;18.994;2023-12-14T10:28:13;256.70;2252.80
55026;DHT22;40925;45.666;18.994;2023-12-14T10:30:39;256.80;2252.80
55026;DHT22;40925;45.666;18.994;2023-12-14T10:33:05;256.70;2252.80
55026;DHT22;40925;45.666;18.994;2023-12-14T10:35:31;256.70;2252.80
55026;DHT22;40925;45.666;18.994;2023-12-14T10:38:00;256.70;2252.80
55026;DHT22;40925;45.666;18.994;2023-12-14T10:40:27;256.80;2252.80
55026;DHT22;40925;45.666;18.994;2023-12-14T10:42:55;256.80;2252.80
55026;DHT22;40925;45.666;18.994;2023-12-14T10:45:29;256.60;2252.80
55026;DHT22;40925;45.666;18.994;2023-12-14T10:47:59;256.50;2252.80
55026;DHT22;40925;45.666;18.994;2023-12-14T10:50:29;256.40;2252.80
55026;DHT22;40925;45.666;18.994;2023-12-14T10:52:58;256.30;2252.80
55026;DHT22;40925;45.666;18.994;2023-12-14T10:55:38;256.40;2252.80
55026;DHT22;40925;45.666;18.994;2023-12-14T10:58:07;256.40;2252.80
55026;DHT22;40925;45.666;18.994;2023-12-14T11:00:33;256.40;2252.80
55026;DHT22;40925;45.666;18.994;2023-12-14T11:02:59;256.30;2252.80
55026;DHT22;40925;45.666;18.994;2023-12-14T11:05:28;256.30;2252.80
55026;DHT22;40925;45.666;18.994;2023-12-14T11:08:02;256.30;2252.80
55026;DHT22;40925;45.666;18.994;2023-12-14T11:10:42;256.40;2252.80
55026;DHT22;40925;45.666;18.994;2023-12-14T11:13:13;256.40;2252.80
55026;DHT22;40925;45.666;18.994;2023-12-14T11:15:48;256.30;2252.80
55026;DHT22;40925;45.666;18.994;2023-12-14T11:23:12;256.20;2252.80
55026;DHT22;40925;45.666;18.994;2023-12-14T11:25:43;256.20;2252.80
55026;DHT22;40925;45.666;18.994;2023-12-14T11:28:09;256.20;2252.80
55026;DHT22;40925;45.666;18.994;2023-12-14T11:30:36;256.40;2252.80
55026;DHT22;40925;45.666;18.994;2023-12-14T11:33:02;256.20;2252.80
55026;DHT22;40925;45.666;18.994;2023-12-14T11:35:28;256.20;2252.80
55026;DHT22;40925;45.666;18.994;2023-12-14T11:37:55;256.20;2252.80
55026;DHT22;40925;45.666;18.994;2023-12-14T11:40:23;256.20;2252.80
55026;DHT22;40925;45.666;18.994;2023-12-14T11:43:03;256.30;2252.80
55026;DHT22;40925;45.666;18.994;2023-12-14T11:45:39;256.40;2252.80
55026;DHT22;40925;45.666;18.994;2023-12-14T11:48:10;256.40;2252.80
55026;DHT22;40925;45.666;18.994;2023-12-14T11:50:40;256.40;2252.80
55026;DHT22;40925;45.666;18.994;2023-12-14T11:53:07;256.40;2252.80
55026;DHT22;40925;45.666;18.994;2023-12-14T11:55:38;256.40;2252.80
55026;DHT22;40925;45.666;18.994;2023-12-14T11:58:04;256.70;2252.80
55026;DHT22;40925;45.666;18.994;2023-12-14T12:00:31;281.60;2278.40
55026;DHT22;40925;45.666;18.994;2023-12-14T12:03:15;256.90;2252.80
55026;DHT22;40925;45.666;18.994;2023-12-14T12:05:42;256.80;2252.80
55026;DHT22;40925;45.666;18.994;2023-12-14T12:08:11;281.60;2278.40
55026;DHT22;40925;45.666;18.994;2023-12-14T12:10:42;281.90;2278.40
55026;DHT22;40925;45.666;18.994;2023-12-14T12:13:12;281.90;2278.40
55026;DHT22;40925;45.666;18.994;2023-12-14T12:15:38;282.10;2278.40
55026;DHT22;40925;45.666;18.994;2023-12-14T12:18:06;282.10;2278.40
55026;DHT22;40925;45.666;18.994;2023-12-14T12:20:32;282.20;2278.40
55026;DHT22;40925;45.666;18.994;2023-12-14T12:22:59;282.40;2278.40
55026;DHT22;40925;45.666;18.994;2023-12-14T12:25:25;282.40;2278.40
55026;DHT22;40925;45.666;18.994;2023-12-14T12:27:52;282.50;2278.40
55026;DHT22;40925;45.666;18.994;2023-12-14T12:30:18;307.80;2304.00
55026;DHT22;40925;45.666;18.994;2023-12-14T12:32:44;333.00;2329.60
55026;DHT22;40925;45.666;18.994;2023-12-14T12:35:10;332.90;2329.60
55026;DHT22;40925;45.666;18.994;2023-12-14T12:37:35;333.30;2329.60
55026;DHT22;40925;45.666;18.994;2023-12-14T12:40:01;333.10;2329.60
55026;DHT22;40925;45.666;18.994;2023-12-14T12:42:27;308.10;2304.00
55026;DHT22;40925;45.666;18.994;2023-12-14T12:44:54;332.80;2329.60
55026;DHT22;40925;45.666;18.994;2023-12-14T12:47:20;308.10;2304.00
55026;DHT22;40925;45.666;18.994;2023-12-14T12:49:46;333.00;2329.60
55026;DHT22;40925;45.666;18.994;2023-12-14T12:52:11;332.90;2329.60
55026;DHT22;40925;45.666;18.994;2023-12-14T12:54:37;332.80;2329.60
55026;DHT22;40925;45.666;18.994;2023-12-14T12:57:03;332.90;2329.60
55026;DHT22;40925;45.666;18.994;2023-12-14T12:59:29;308.10;2304.00
55026;DHT22;40925;45.666;18.994;2023-12-14T13:01:54;308.00;2304.00
55026;DHT22;40925;45.666;18.994;2023-12-14T13:04:21;307.90;2304.00
55026;DHT22;40925;45.666;18.994;2023-12-14T13:06:48;307.70;2304.00
55026;DHT22;40925;45.666;18.994;2023-12-14T13:09:16;307.40;2304.00
55026;DHT22;40925;45.666;18.994;2023-12-14T13:11:43;307.30;2304.00
55026;DHT22;40925;45.666;18.994;2023-12-14T13:14:09;307.40;2304.00
55026;DHT22;40925;45.666;18.994;2023-12-14T13:16:36;307.30;2304.00
55026;DHT22;40925;45.666;18.994;2023-12-14T13:19:02;307.20;2304.00
55026;DHT22;40925;45.666;18.994;2023-12-14T13:21:29;282.50;2278.40
55026;DHT22;40925;45.666;18.994;2023-12-14T13:23:55;282.40;2278.40
55026;DHT22;40925;45.666;18.994;2023-12-14T13:26:23;282.40;2278.40
55026;DHT22;40925;45.666;18.994;2023-12-14T13:28:53;282.30;2278.40
55026;DHT22;40925;45.666;18.994;2023-12-14T13:31:19;282.20;2278.40
55026;DHT22;40925;45.666;18.994;2023-12-14T13:33:48;282.20;2278.40
55026;DHT22;40925;45.666;18.994;2023-12-14T13:36:14;282.10;2278.40
55026;DHT22;40925;45.666;18.994;2023-12-14T13:38:41;282.10;2278.40
55026;DHT22;40925;45.666;18.994;2023-12-14T13:41:09;282.00;2022.40
55026;DHT22;40925;45.666;18.994;2023-12-14T13:43:35;281.90;2124.80
55026;DHT22;40925;45.666;18.994;2023-12-14T13:46:01;281.80;2278.40
55026;DHT22;40925;45.666;18.994;2023-12-14T13:48:27;281.70;2278.40
55026;DHT22;40925;45.666;18.994;2023-12-14T13:50:54;281.60;2278.40
55026;DHT22;40925;45.666;18.994;2023-12-14T13:53:21;281.60;2278.40
55026;DHT22;40925;45.666;18.994;2023-12-14T13:55:47;256.90;2252.80
55026;DHT22;40925;45.666;18.994;2023-12-14T13:58:14;256.90;2252.80
55026;DHT22;40925;45.666;18.994;2023-12-14T14:00:40;256.80;2252.80
55026;DHT22;40925;45.666;18.994;2023-12-14T14:03:06;256.80;2252.80
55026;DHT22;40925;45.666;18.994;2023-12-14T14:05:32;256.80;1996.80
55026;DHT22;40925;45.666;18.994;2023-12-14T14:07:58;256.90;2150.40
55026;DHT22;40925;45.666;18.994;2023-12-14T14:10:24;256.80;2252.80
55026;DHT22;40925;45.666;18.994;2023-12-14T14:12:49;256.80;2252.80
55026;DHT22;40925;45.666;18.994;2023-12-14T14:15:16;256.70;2252.80
55026;DHT22;40925;45.666;18.994;2023-12-14T14:17:42;256.60;2252.80
55026;DHT22;40925;45.666;18.994;2023-12-14T14:20:08;256.50;2252.80
55026;DHT22;40925;45.666;18.994;2023-12-14T14:22:36;256.40;2252.80
55026;DHT22;40925;45.666;18.994;2023-12-14T14:25:02;256.40;2252.80
55026;DHT22;40925;45.666;18.994;2023-12-14T14:27:28;256.30;2252.80
55026;DHT22;40925;45.666;18.994;2023-12-14T14:29:53;256.20;2252.80
55026;DHT22;40925;45.666;18.994;2023-12-14T14:32:21;256.20;2252.80
55026;DHT22;40925;45.666;18.994;2023-12-14T14:34:47;256.10;2252.80
55026;DHT22;40925;45.666;18.994;2023-12-14T14:37:13;256.10;2252.80
55026;DHT22;40925;45.666;18.994;2023-12-14T14:39:39;256.00;2252.80
55026;DHT22;40925;45.666;18.994;2023-12-14T14:42:11;231.30;2252.80
55026;DHT22;40925;45.666;18.994;2023-12-14T14:44:39;231.30;2252.80
55026;DHT22;40925;45.666;18.994;2023-12-14T14:47:06;231.20;2252.80
55026;DHT22;40925;45.666;18.994;2023-12-14T14:49:31;231.20;2252.80
55026;DHT22;40925;45.666;18.994;2023-12-14T14:51:57;231.20;2252.80
55026;DHT22;40925;45.666;18.994;2023-12-14T14:54:23;231.10;2252.80
55026;DHT22;40925;45.666;18.994;2023-12-14T14:56:49;231.10;2252.80
55026;DHT22;40925;45.666;18.994;2023-12-14T14:59:14;231.00;2252.80
55026;DHT22;40925;45.666;18.994;2023-12-14T15:01:44;231.00;2252.80
55026;DHT22;40925;45.666;18.994;2023-12-14T15:04:11;231.10;2252.80